This is the latest recevied weather packets stored in our database for station/object W4SMH. If no packets are shown the sender has not sent any weather packets the latest 10 day(s).
| Time | Temp. | Humidity | Pressure | Rain* | Wind** | Luminosity | Snow |
|---|---|---|---|---|---|---|---|
| 1777763861 | 13.33° C | 41% | 1013.6 hPa | 0 mm | - | 81 W/m² | - |
| 1777763687 | 13.33° C | 42% | 1013.5 hPa | 0 mm | - | 95 W/m² | - |
| 1777762888 | 12.78° C | 43% | 1013.7 hPa | 0 mm | - | 123 W/m² | - |
| 1777762717 | 12.78° C | 43% | 1013.7 hPa | 0 mm | - | 121 W/m² | - |
| 1777762649 | 12.78° C | 42% | 1013.7 hPa | 0 mm | - | 125 W/m² | - |
| 1777762616 | 12.78° C | 41% | 1013.8 hPa | 0 mm | - | 125 W/m² | - |
| 1777762366 | 12.78° C | 44% | 1013.8 hPa | 0 mm | - | 123 W/m² | - |
| 1777762216 | 13.33° C | 42% | 1013.9 hPa | 0 mm | - | 134 W/m² | - |
| 1777762028 | 13.33° C | 43% | 1013.8 hPa | 0 mm | - | 139 W/m² | - |
| 1777762002 | 13.33° C | 41% | 1013.9 hPa | 0 mm | - | 139 W/m² | - |
| 1777761655 | 3.89° C | 89% | 1013.9 hPa | 0.25 mm | - | 0 W/m² | - |
| 1777761541 | 13.33° C | 41% | 1013.9 hPa | 0 mm | - | 125 W/m² | - |
| 1777761447 | 13.33° C | 42% | 1014 hPa | 0 mm | - | 160 W/m² | - |
| 1777761412 | 13.33° C | 41% | 1013.9 hPa | 0 mm | - | 160 W/m² | - |
| 1777761102 | 13.33° C | 42% | 1013.8 hPa | 0 mm | - | 172 W/m² | - |
| 1777760688 | 13.33° C | 43% | 1013.8 hPa | 0 mm | - | 165 W/m² | - |
| 1777760441 | 3.33° C | 88% | 1013.6 hPa | 0 mm | - | 0 W/m² | - |
| 1777760412 | 13.33° C | 43% | 1013.8 hPa | 0 mm | - | 264 W/m² | - |
| 1777759921 | 13.33° C | 44% | 1013.9 hPa | 0 mm | - | 190 W/m² | - |
| 1777759839 | 13.33° C | 42% | 1013.9 hPa | 0 mm | - | 162 W/m² | - |
| 1777759621 | 13.33° C | 44% | 1013.9 hPa | 0 mm | - | 144 W/m² | - |
| 1777759094 | 12.78° C | 43% | 1014.1 hPa | 0 mm | - | 213 W/m² | - |
| 1777758776 | 13.33° C | 44% | 1014 hPa | 0 mm | - | 193 W/m² | - |
| 1777758309 | 13.33° C | 41% | 1014.1 hPa | 0 mm | - | 144 W/m² | - |
| 1777758244 | 13.33° C | 44% | 1014 hPa | 0 mm | - | 209 W/m² | - |
* Rain latest hour (hover to see other rain measurements)
** Current wind speed in m/s (hover to see current wind gust speed)